createdAt,value
2022-12-28T00:01:21.750Z,0.00
2022-12-28T00:04:08.995Z,0.10
2022-12-28T00:06:56.250Z,0.10
2022-12-28T00:09:43.545Z,0.10
2022-12-28T00:12:32.959Z,0.00
2022-12-28T00:15:21.704Z,0.00
2022-12-28T00:18:09.026Z,-0.10
2022-12-28T00:20:59.532Z,-0.20
2022-12-28T00:23:49.348Z,-0.30
2022-12-28T00:26:36.839Z,-0.30
2022-12-28T00:29:24.076Z,-0.40
2022-12-28T00:32:12.453Z,-0.50
2022-12-28T00:34:59.649Z,-0.60
2022-12-28T00:37:47.085Z,-0.70
2022-12-28T00:40:34.597Z,-0.70
2022-12-28T00:43:22.137Z,-0.80
2022-12-28T00:46:09.602Z,-0.90
2022-12-28T00:48:58.353Z,-0.90
2022-12-28T00:51:46.759Z,-1.00
2022-12-28T00:54:34.070Z,-1.10
2022-12-28T00:57:23.155Z,-1.10
2022-12-28T01:00:11.612Z,-1.20
2022-12-28T01:02:58.821Z,-1.20
2022-12-28T01:05:47.510Z,-1.30
2022-12-28T01:08:36.469Z,-1.30
2022-12-28T01:11:25.252Z,-1.30
2022-12-28T01:14:13.973Z,-1.40
2022-12-28T01:17:01.241Z,-1.40
2022-12-28T01:19:53.779Z,-1.50
2022-12-28T01:22:42.737Z,-1.50
2022-12-28T01:25:30.066Z,-1.50
2022-12-28T01:28:19.458Z,-1.60
2022-12-28T01:31:07.700Z,-1.60
2022-12-28T01:33:55.413Z,-1.60
2022-12-28T01:36:42.706Z,-1.70
2022-12-28T01:39:31.267Z,-1.70
2022-12-28T01:42:19.513Z,-1.70
2022-12-28T01:45:16.364Z,-1.60
2022-12-28T01:48:04.415Z,-1.60
2022-12-28T01:50:54.422Z,-1.60
2022-12-28T01:53:41.710Z,-1.60
2022-12-28T01:56:30.565Z,-1.60
2022-12-28T01:59:19.548Z,-1.60
2022-12-28T02:02:07.273Z,-1.60
2022-12-28T02:04:54.593Z,-1.50
2022-12-28T02:07:44.845Z,-1.50
2022-12-28T02:10:43.455Z,-1.50
2022-12-28T02:13:34.505Z,-1.50
2022-12-28T02:16:22.163Z,-1.50
2022-12-28T02:19:10.814Z,-1.60
2022-12-28T02:22:08.805Z,-1.60
2022-12-28T02:25:14.051Z,-1.60
2022-12-28T02:28:05.350Z,-1.60
2022-12-28T02:30:56.602Z,-1.60
2022-12-28T02:33:45.980Z,-1.60
2022-12-28T02:36:36.099Z,-1.60
2022-12-28T02:39:25.836Z,-1.60
2022-12-28T02:42:14.143Z,-1.60
2022-12-28T02:45:18.721Z,-1.60
2022-12-28T02:48:26.010Z,-1.60
2022-12-28T02:51:30.152Z,-1.60
2022-12-28T02:54:37.678Z,-1.60
2022-12-28T02:57:28.835Z,-1.60
2022-12-28T03:00:17.707Z,-1.60
2022-12-28T03:03:12.676Z,-1.60
2022-12-28T03:06:30.224Z,-1.60
2022-12-28T03:09:20.752Z,-1.60
2022-12-28T03:12:10.719Z,-1.60
2022-12-28T03:15:00.273Z,-1.50
2022-12-28T03:18:06.303Z,-1.50
2022-12-28T03:21:14.783Z,-1.60
2022-12-28T03:24:20.864Z,-1.60
2022-12-28T03:27:28.254Z,-1.60
2022-12-28T03:30:37.519Z,-1.50
2022-12-28T03:33:25.869Z,-1.50
2022-12-28T03:36:18.530Z,-1.40
2022-12-28T03:39:10.329Z,-1.40
2022-12-28T03:42:18.499Z,-1.30
2022-12-28T03:45:08.118Z,-1.20
2022-12-28T03:47:57.545Z,-1.20
2022-12-28T03:50:46.601Z,-1.20
2022-12-28T03:53:40.408Z,-1.20
2022-12-28T03:56:30.599Z,-1.10
2022-12-28T03:59:21.466Z,-1.10
2022-12-28T04:02:12.160Z,-1.10
2022-12-28T04:04:59.597Z,-1.00
2022-12-28T04:07:46.876Z,-1.00
2022-12-28T04:10:35.886Z,-1.00
2022-12-28T04:13:23.017Z,-1.00
2022-12-28T04:16:21.085Z,-0.90
2022-12-28T04:19:08.862Z,-0.90
2022-12-28T04:21:56.670Z,-0.90
2022-12-28T04:24:43.791Z,-0.80
2022-12-28T04:27:32.728Z,-0.80
2022-12-28T04:30:25.341Z,-0.80
2022-12-28T04:33:13.480Z,-0.80
2022-12-28T04:36:07.831Z,-0.80
2022-12-28T04:38:55.236Z,-0.80
2022-12-28T04:41:42.670Z,-0.80
2022-12-28T04:44:32.600Z,-0.70
2022-12-28T04:47:20.011Z,-0.60
2022-12-28T04:50:07.589Z,-0.60
2022-12-28T04:52:55.040Z,-0.60
2022-12-28T04:55:42.426Z,-0.60
2022-12-28T04:58:30.046Z,-0.70
2022-12-28T05:01:20.762Z,-0.70
2022-12-28T05:04:08.576Z,-0.70
2022-12-28T05:06:55.647Z,-0.70
2022-12-28T05:09:43.091Z,-0.80
2022-12-28T05:12:30.190Z,-0.80
2022-12-28T05:15:17.889Z,-0.80
2022-12-28T05:18:06.634Z,-0.80
2022-12-28T05:20:59.400Z,-0.80
2022-12-28T05:23:46.548Z,-0.70
2022-12-28T05:26:34.857Z,-0.80
2022-12-28T05:29:21.848Z,-0.70
2022-12-28T05:32:09.214Z,-0.70
2022-12-28T05:34:57.789Z,-0.70
2022-12-28T05:37:45.039Z,-0.70
2022-12-28T05:40:32.373Z,-0.80
2022-12-28T05:43:19.887Z,-0.80
2022-12-28T05:46:08.597Z,-0.80
2022-12-28T05:48:56.443Z,-0.90
2022-12-28T05:51:45.067Z,-0.90
2022-12-28T05:54:32.365Z,-0.90
2022-12-28T05:57:19.759Z,-1.00
2022-12-28T06:00:08.548Z,-1.00
2022-12-28T06:03:01.830Z,-1.10
2022-12-28T06:05:49.336Z,-1.10
2022-12-28T06:08:38.413Z,-1.10
2022-12-28T06:11:26.806Z,-1.10
2022-12-28T06:14:13.762Z,-1.10
2022-12-28T06:17:01.464Z,-1.10
2022-12-28T06:19:48.571Z,-1.10
2022-12-28T06:22:36.300Z,-1.10
2022-12-28T06:25:25.122Z,-1.20
2022-12-28T06:28:12.261Z,-1.20
2022-12-28T06:31:03.586Z,-1.20
2022-12-28T06:33:53.852Z,-1.20
2022-12-28T06:36:42.529Z,-1.20
2022-12-28T06:39:29.655Z,-1.20
2022-12-28T06:42:18.542Z,-1.20
2022-12-28T06:45:06.424Z,-1.20
2022-12-28T06:47:53.992Z,-1.20
2022-12-28T06:50:41.147Z,-1.30
2022-12-28T06:53:29.194Z,-1.30
2022-12-28T06:56:17.544Z,-1.30
2022-12-28T06:59:06.491Z,-1.20
2022-12-28T07:01:53.626Z,-1.10
2022-12-28T07:04:41.175Z,-1.00
2022-12-28T07:07:28.165Z,-0.70
2022-12-28T07:10:15.535Z,-0.60
2022-12-28T07:13:03.002Z,-0.40
2022-12-28T07:15:51.513Z,-0.20
2022-12-28T07:18:39.014Z,0.00
2022-12-28T07:21:27.356Z,0.10
2022-12-28T07:24:14.688Z,0.20
2022-12-28T07:27:02.576Z,0.20
2022-12-28T07:29:50.014Z,0.30
2022-12-28T07:32:39.037Z,0.40
2022-12-28T07:35:26.293Z,0.50
2022-12-28T07:38:17.954Z,0.60
2022-12-28T07:41:09.138Z,0.60
2022-12-28T07:43:56.467Z,0.60
2022-12-28T07:46:43.854Z,0.70
2022-12-28T07:49:32.502Z,0.70
2022-12-28T07:52:19.897Z,0.80
2022-12-28T07:55:07.346Z,0.90
2022-12-28T07:57:54.579Z,0.90
2022-12-28T08:00:42.007Z,1.00
2022-12-28T08:03:29.711Z,1.10
2022-12-28T08:06:20.124Z,1.20
2022-12-28T08:09:08.297Z,1.20
2022-12-28T08:11:55.333Z,1.30
2022-12-28T08:14:42.602Z,1.40
2022-12-28T08:17:30.231Z,1.50
2022-12-28T08:20:17.780Z,1.60
2022-12-28T08:23:06.360Z,1.70
2022-12-28T08:25:53.775Z,1.70
2022-12-28T08:28:41.215Z,1.70
2022-12-28T08:31:29.647Z,1.80
2022-12-28T08:34:17.954Z,1.80
2022-12-28T08:37:05.076Z,1.80
2022-12-28T08:39:53.901Z,1.90
2022-12-28T08:42:41.106Z,2.00
2022-12-28T08:45:28.623Z,2.00
2022-12-28T08:48:16.009Z,2.20
2022-12-28T08:51:04.594Z,2.20
2022-12-28T08:53:52.140Z,2.30
2022-12-28T08:56:42.503Z,2.50
2022-12-28T08:59:29.831Z,2.60
2022-12-28T09:02:17.283Z,2.70
2022-12-28T09:05:04.789Z,2.80
2022-12-28T09:07:56.280Z,2.90
2022-12-28T09:10:47.028Z,3.00
2022-12-28T09:13:36.297Z,3.10
2022-12-28T09:16:25.658Z,3.20
2022-12-28T09:19:14.856Z,3.30
2022-12-28T09:22:02.239Z,3.30
2022-12-28T09:24:49.500Z,3.40
2022-12-28T09:27:36.908Z,3.40
2022-12-28T09:30:25.639Z,3.50
2022-12-28T09:33:30.385Z,3.60
2022-12-28T09:36:19.183Z,3.60
2022-12-28T09:39:07.413Z,3.70
2022-12-28T09:41:56.469Z,3.70
2022-12-28T09:44:59.640Z,3.80
2022-12-28T09:47:50.069Z,4.00
2022-12-28T09:50:37.771Z,4.00
2022-12-28T09:53:29.425Z,4.20
2022-12-28T09:56:23.739Z,4.20
2022-12-28T09:59:16.577Z,4.30
2022-12-28T10:02:05.033Z,4.40
2022-12-28T10:04:53.825Z,4.50
2022-12-28T10:07:41.152Z,4.60
2022-12-28T10:10:29.480Z,4.70
2022-12-28T10:13:53.061Z,4.70
2022-12-28T10:16:27.818Z,4.80
2022-12-28T10:19:17.335Z,4.70
2022-12-28T10:22:08.688Z,4.80
2022-12-28T10:24:55.981Z,4.90
2022-12-28T10:27:43.664Z,5.00
2022-12-28T10:30:31.420Z,5.00
2022-12-28T10:33:19.759Z,5.20
2022-12-28T10:36:07.262Z,5.30
2022-12-28T10:38:57.164Z,5.40
2022-12-28T10:41:45.598Z,5.50
2022-12-28T10:44:41.563Z,5.70
2022-12-28T10:47:30.475Z,5.80
2022-12-28T10:50:37.930Z,5.90
2022-12-28T10:53:26.900Z,6.00
2022-12-28T10:56:23.195Z,6.10
2022-12-28T10:59:20.104Z,6.20
2022-12-28T11:02:25.461Z,6.20
2022-12-28T11:05:20.556Z,6.20
2022-12-28T11:08:07.620Z,6.20
2022-12-28T11:10:58.181Z,6.30
2022-12-28T11:13:49.184Z,6.20
2022-12-28T11:16:37.485Z,6.20
2022-12-28T11:19:25.477Z,6.20
2022-12-28T11:22:13.513Z,6.10
2022-12-28T11:25:01.668Z,6.10
2022-12-28T11:27:49.394Z,6.10
2022-12-28T11:30:37.763Z,6.10
2022-12-28T11:33:26.501Z,6.20
2022-12-28T11:36:16.034Z,6.40
2022-12-28T11:39:28.547Z,6.50
2022-12-28T11:42:50.253Z,6.60
2022-12-28T11:45:55.199Z,6.60
2022-12-28T11:48:58.933Z,6.70
2022-12-28T11:51:46.009Z,6.80
2022-12-28T11:54:38.567Z,6.80
2022-12-28T11:57:43.480Z,6.90
2022-12-28T12:00:49.103Z,6.90
2022-12-28T12:03:50.995Z,6.90
2022-12-28T12:06:57.202Z,6.80
2022-12-28T12:09:46.585Z,6.80
2022-12-28T12:12:34.897Z,6.90
2022-12-28T12:15:24.312Z,7.00
2022-12-28T12:18:18.787Z,7.00
2022-12-28T12:21:15.116Z,7.10
2022-12-28T12:24:06.995Z,7.20
2022-12-28T12:26:58.967Z,7.30
2022-12-28T12:29:48.311Z,7.40
2022-12-28T12:32:39.357Z,7.40
2022-12-28T12:35:28.254Z,7.40
2022-12-28T12:38:22.685Z,7.50
2022-12-28T12:41:18.543Z,7.50
2022-12-28T12:44:18.792Z,7.50
2022-12-28T12:47:17.284Z,7.60
2022-12-28T12:50:18.629Z,7.60
2022-12-28T12:53:07.734Z,7.60
2022-12-28T12:56:00.452Z,7.60
2022-12-28T12:58:50.171Z,7.50
2022-12-28T13:01:45.557Z,7.50
2022-12-28T13:04:35.027Z,7.40
2022-12-28T13:07:24.129Z,7.40
2022-12-28T13:10:15.917Z,7.50
2022-12-28T13:13:04.056Z,7.60
2022-12-28T13:15:51.297Z,7.80
2022-12-28T13:18:45.013Z,7.90
2022-12-28T13:21:41.670Z,8.00
2022-12-28T13:24:30.267Z,8.00
2022-12-28T13:27:19.636Z,8.10
2022-12-28T13:30:18.303Z,8.10
2022-12-28T13:33:05.496Z,8.00
2022-12-28T13:36:05.197Z,8.00
2022-12-28T13:39:04.053Z,8.00
2022-12-28T13:41:52.268Z,8.00
2022-12-28T13:44:41.418Z,8.00
2022-12-28T13:47:30.063Z,8.00
2022-12-28T13:50:18.957Z,8.00
2022-12-28T13:53:09.603Z,8.00
2022-12-28T13:55:58.539Z,8.00
2022-12-28T13:58:49.689Z,8.10
2022-12-28T14:01:37.739Z,8.00
2022-12-28T14:04:52.310Z,8.00
2022-12-28T14:07:36.540Z,8.00
2022-12-28T14:10:25.461Z,8.00
2022-12-28T14:13:12.885Z,8.00
2022-12-28T14:16:00.353Z,8.00
2022-12-28T14:18:48.367Z,8.10
2022-12-28T14:21:36.958Z,8.10
2022-12-28T14:24:25.083Z,8.00
2022-12-28T14:27:17.624Z,8.10
2022-12-28T14:30:05.866Z,8.10
2022-12-28T14:32:53.571Z,8.00
2022-12-28T14:35:49.734Z,8.00
2022-12-28T14:38:40.195Z,8.00
2022-12-28T14:41:29.854Z,8.00
2022-12-28T14:44:24.698Z,7.90
2022-12-28T14:47:26.499Z,7.90
2022-12-28T14:50:17.749Z,7.80
2022-12-28T14:53:09.154Z,7.80
2022-12-28T14:55:59.452Z,7.80
2022-12-28T14:58:50.992Z,7.80
2022-12-28T15:01:43.892Z,7.80
2022-12-28T15:04:38.529Z,7.80
2022-12-28T15:07:25.528Z,7.80
2022-12-28T15:10:12.950Z,7.80
2022-12-28T15:13:00.953Z,7.80
2022-12-28T15:15:54.528Z,7.80
2022-12-28T15:18:45.073Z,7.70
2022-12-28T15:21:33.440Z,7.70
2022-12-28T15:24:23.715Z,7.80
2022-12-28T15:27:12.575Z,7.80
2022-12-28T15:30:09.786Z,7.90
2022-12-28T15:32:59.379Z,7.80
2022-12-28T15:35:48.019Z,7.80
2022-12-28T15:38:35.381Z,7.80
2022-12-28T15:41:40.110Z,7.70
2022-12-28T15:44:27.380Z,7.70
2022-12-28T15:47:15.025Z,7.70
2022-12-28T15:50:03.484Z,7.60
2022-12-28T15:52:52.380Z,7.60
2022-12-28T15:55:39.518Z,7.60
2022-12-28T15:58:26.773Z,7.60
2022-12-28T16:01:14.268Z,7.60
2022-12-28T16:04:02.558Z,7.60
2022-12-28T16:06:49.959Z,7.60
2022-12-28T16:09:38.817Z,7.60
2022-12-28T16:12:26.294Z,7.50
2022-12-28T16:15:13.599Z,7.50
2022-12-28T16:18:00.979Z,7.50
2022-12-28T16:20:48.982Z,7.40
2022-12-28T16:23:37.499Z,7.40
2022-12-28T16:26:26.084Z,7.40
2022-12-28T16:29:13.389Z,7.40
2022-12-28T16:32:01.538Z,7.40
2022-12-28T16:34:49.060Z,7.40
2022-12-28T16:37:36.466Z,7.40
2022-12-28T16:40:23.558Z,7.40
2022-12-28T16:43:12.651Z,7.40
2022-12-28T16:46:06.075Z,7.40
2022-12-28T16:48:53.581Z,7.40
2022-12-28T16:51:41.311Z,7.50
2022-12-28T16:54:28.503Z,7.50
2022-12-28T16:57:15.801Z,7.50
2022-12-28T17:00:05.404Z,7.40
2022-12-28T17:02:52.773Z,7.40
2022-12-28T17:05:39.887Z,7.40
2022-12-28T17:08:27.394Z,7.30
2022-12-28T17:11:14.717Z,7.30
2022-12-28T17:14:02.847Z,7.30
2022-12-28T17:16:51.740Z,7.30
2022-12-28T17:19:38.903Z,7.30
2022-12-28T17:22:26.369Z,7.30
2022-12-28T17:25:14.618Z,7.30
2022-12-28T17:28:01.927Z,7.30
2022-12-28T17:30:49.279Z,7.30
2022-12-28T17:33:40.077Z,7.20
2022-12-28T17:36:28.480Z,7.20
2022-12-28T17:39:15.556Z,7.20
2022-12-28T17:42:02.705Z,7.30
2022-12-28T17:44:50.106Z,7.30
2022-12-28T17:47:37.541Z,7.30
2022-12-28T17:50:26.236Z,7.30
2022-12-28T17:53:13.378Z,7.30
2022-12-28T17:56:01.951Z,7.30
2022-12-28T17:58:49.609Z,7.40
2022-12-28T18:01:37.070Z,7.40
2022-12-28T18:04:24.206Z,7.40
2022-12-28T18:07:13.046Z,7.40
2022-12-28T18:10:00.401Z,7.40
2022-12-28T18:12:47.831Z,7.40
2022-12-28T18:15:35.292Z,7.40
2022-12-28T18:18:22.824Z,7.40
2022-12-28T18:21:15.169Z,7.50
2022-12-28T18:24:08.641Z,7.50
2022-12-28T18:26:55.844Z,7.60
2022-12-28T18:29:44.521Z,7.70
2022-12-28T18:32:31.873Z,7.80
2022-12-28T18:35:21.965Z,7.90
2022-12-28T18:38:09.393Z,7.90
2022-12-28T18:40:58.901Z,7.90
2022-12-28T18:43:46.008Z,7.90
2022-12-28T18:46:34.343Z,8.00
2022-12-28T18:49:21.817Z,8.00
2022-12-28T18:52:08.879Z,8.10
2022-12-28T18:54:56.193Z,8.10
2022-12-28T18:57:45.492Z,8.20
2022-12-28T19:00:32.772Z,8.20
2022-12-28T19:03:20.349Z,8.20
2022-12-28T19:06:08.416Z,8.20
2022-12-28T19:08:58.994Z,8.20
2022-12-28T19:11:46.463Z,8.20
2022-12-28T19:14:35.213Z,8.20
2022-12-28T19:17:22.360Z,8.20
2022-12-28T19:20:10.285Z,8.20
2022-12-28T19:22:57.677Z,8.20
2022-12-28T19:25:45.053Z,8.30
2022-12-28T19:28:32.621Z,8.30
2022-12-28T19:31:21.409Z,8.30
2022-12-28T19:34:08.923Z,8.30
2022-12-28T19:36:56.230Z,8.40
2022-12-28T19:39:43.359Z,8.30
2022-12-28T19:42:30.652Z,8.30
2022-12-28T19:45:18.953Z,8.30
2022-12-28T19:48:07.789Z,8.30
2022-12-28T19:50:55.032Z,8.30
2022-12-28T19:53:42.536Z,8.20
2022-12-28T19:56:29.921Z,8.20
2022-12-28T19:59:17.357Z,8.30
2022-12-28T20:02:04.648Z,8.30
2022-12-28T20:04:54.530Z,8.30
2022-12-28T20:07:41.839Z,8.20
2022-12-28T20:10:30.072Z,8.20
2022-12-28T20:13:17.293Z,8.10
2022-12-28T20:16:05.887Z,8.10
2022-12-28T20:18:54.296Z,8.10
2022-12-28T20:21:42.783Z,8.10
2022-12-28T20:24:30.129Z,8.10
2022-12-28T20:27:17.380Z,8.00
2022-12-28T20:30:05.071Z,8.00
2022-12-28T20:32:52.253Z,8.00
2022-12-28T20:35:39.697Z,8.00
2022-12-28T20:38:29.065Z,8.00
2022-12-28T20:41:31.466Z,7.90
2022-12-28T20:44:21.938Z,7.90
2022-12-28T20:47:09.073Z,7.90
2022-12-28T20:49:56.584Z,7.80
2022-12-28T20:52:43.793Z,7.80
2022-12-28T20:55:32.566Z,7.70
2022-12-28T20:58:21.402Z,7.60
2022-12-28T21:01:09.844Z,7.60
2022-12-28T21:03:57.792Z,7.50
2022-12-28T21:06:45.926Z,7.50
2022-12-28T21:09:33.465Z,7.50
2022-12-28T21:12:22.314Z,7.50
2022-12-28T21:15:09.883Z,7.50
2022-12-28T21:17:57.317Z,7.50
2022-12-28T21:20:45.754Z,7.50
2022-12-28T21:23:33.176Z,7.50
2022-12-28T21:26:21.677Z,7.50
2022-12-28T21:29:10.442Z,7.40
2022-12-28T21:31:57.752Z,7.40
2022-12-28T21:34:45.026Z,7.30
2022-12-28T21:37:35.269Z,7.30
2022-12-28T21:40:22.477Z,7.30
2022-12-28T21:43:09.502Z,7.30
2022-12-28T21:46:02.279Z,7.40
2022-12-28T21:48:50.003Z,7.50
2022-12-28T21:51:38.697Z,7.50
2022-12-28T21:54:26.061Z,7.50
2022-12-28T21:57:13.874Z,7.50
2022-12-28T22:00:21.262Z,7.50
2022-12-28T22:03:27.451Z,7.50
2022-12-28T22:06:14.680Z,7.40
2022-12-28T22:09:19.665Z,7.40
2022-12-28T22:12:24.609Z,7.40
2022-12-28T22:15:29.665Z,7.30
2022-12-28T22:18:44.933Z,7.10
2022-12-28T22:21:29.424Z,7.00
2022-12-28T22:24:16.537Z,7.00
2022-12-28T22:27:03.868Z,7.00
2022-12-28T22:29:51.181Z,6.90
2022-12-28T22:32:38.591Z,6.90
2022-12-28T22:35:27.385Z,6.90
2022-12-28T22:38:14.468Z,6.90
2022-12-28T22:41:01.911Z,6.90
2022-12-28T22:43:50.270Z,6.90
2022-12-28T22:46:37.732Z,7.00
2022-12-28T22:49:25.172Z,7.00
2022-12-28T22:52:13.766Z,6.90
2022-12-28T22:55:00.832Z,6.90
2022-12-28T22:57:48.260Z,6.90
2022-12-28T23:00:35.591Z,6.80
2022-12-28T23:03:22.882Z,6.80
2022-12-28T23:06:11.145Z,6.80
2022-12-28T23:08:59.983Z,6.80
2022-12-28T23:11:47.773Z,6.90
2022-12-28T23:14:52.343Z,6.80
2022-12-28T23:17:39.505Z,6.70
2022-12-28T23:20:44.289Z,6.70
2022-12-28T23:23:48.878Z,6.60
2022-12-28T23:26:54.973Z,6.60
2022-12-28T23:29:42.448Z,6.50
2022-12-28T23:32:29.890Z,6.50
2022-12-28T23:35:17.866Z,6.40
2022-12-28T23:38:05.292Z,6.30
2022-12-28T23:41:12.970Z,6.20
2022-12-28T23:44:02.574Z,6.20
2022-12-28T23:46:53.941Z,6.20
2022-12-28T23:49:45.399Z,6.20
2022-12-28T23:52:32.733Z,6.20
2022-12-28T23:55:20.310Z,6.20
2022-12-28T23:58:07.409Z,6.20
